sensor_id;sensor_type;location;lat;lon;timestamp;temperature;humidity
19622;DHT22;9958;33.196;-97.114;2023-09-30T00:01:59;32.40;68.40
19622;DHT22;9958;33.196;-97.114;2023-09-30T00:04:29;32.40;68.50
19622;DHT22;9958;33.196;-97.114;2023-09-30T00:06:57;32.30;68.50
19622;DHT22;9958;33.196;-97.114;2023-09-30T00:09:26;32.30;68.60
19622;DHT22;9958;33.196;-97.114;2023-09-30T00:11:54;32.20;68.90
19622;DHT22;9958;33.196;-97.114;2023-09-30T00:14:22;32.10;68.90
19622;DHT22;9958;33.196;-97.114;2023-09-30T00:16:51;32.10;69.20
19622;DHT22;9958;33.196;-97.114;2023-09-30T00:19:19;32.10;69.60
19622;DHT22;9958;33.196;-97.114;2023-09-30T00:21:50;32.00;69.50
19622;DHT22;9958;33.196;-97.114;2023-09-30T00:24:18;32.00;69.80
19622;DHT22;9958;33.196;-97.114;2023-09-30T00:26:47;31.90;70.10
19622;DHT22;9958;33.196;-97.114;2023-09-30T00:29:17;31.80;70.30
19622;DHT22;9958;33.196;-97.114;2023-09-30T00:31:45;31.80;70.50
19622;DHT22;9958;33.196;-97.114;2023-09-30T00:34:14;31.70;70.40
19622;DHT22;9958;33.196;-97.114;2023-09-30T00:36:42;31.60;70.50
19622;DHT22;9958;33.196;-97.114;2023-09-30T00:39:12;31.60;70.50
19622;DHT22;9958;33.196;-97.114;2023-09-30T00:41:40;31.50;70.50
19622;DHT22;9958;33.196;-97.114;2023-09-30T00:44:09;31.50;70.30
19622;DHT22;9958;33.196;-97.114;2023-09-30T00:46:39;31.40;70.00
19622;DHT22;9958;33.196;-97.114;2023-09-30T00:49:09;31.30;69.50
19622;DHT22;9958;33.196;-97.114;2023-09-30T00:51:38;31.30;69.60
19622;DHT22;9958;33.196;-97.114;2023-09-30T00:54:07;31.30;69.70
19622;DHT22;9958;33.196;-97.114;2023-09-30T00:56:42;31.20;69.80
19622;DHT22;9958;33.196;-97.114;2023-09-30T00:59:12;31.20;70.20
19622;DHT22;9958;33.196;-97.114;2023-09-30T01:01:41;31.20;70.80
19622;DHT22;9958;33.196;-97.114;2023-09-30T01:04:10;31.10;71.60
19622;DHT22;9958;33.196;-97.114;2023-09-30T01:06:39;31.00;72.20
19622;DHT22;9958;33.196;-97.114;2023-09-30T01:09:07;31.00;72.60
19622;DHT22;9958;33.196;-97.114;2023-09-30T01:11:38;31.00;73.10
19622;DHT22;9958;33.196;-97.114;2023-09-30T01:14:28;30.90;73.90
19622;DHT22;9958;33.196;-97.114;2023-09-30T01:16:57;30.90;74.70
19622;DHT22;9958;33.196;-97.114;2023-09-30T01:19:26;30.80;75.40
19622;DHT22;9958;33.196;-97.114;2023-09-30T01:21:56;30.80;75.70
19622;DHT22;9958;33.196;-97.114;2023-09-30T01:24:26;30.70;76.00
19622;DHT22;9958;33.196;-97.114;2023-09-30T01:26:54;30.70;76.60
19622;DHT22;9958;33.196;-97.114;2023-09-30T01:29:23;30.70;76.80
19622;DHT22;9958;33.196;-97.114;2023-09-30T01:31:52;30.60;77.10
19622;DHT22;9958;33.196;-97.114;2023-09-30T01:34:20;30.50;77.30
19622;DHT22;9958;33.196;-97.114;2023-09-30T01:36:49;30.50;77.30
19622;DHT22;9958;33.196;-97.114;2023-09-30T01:39:19;30.50;77.40
19622;DHT22;9958;33.196;-97.114;2023-09-30T01:41:48;30.40;77.80
19622;DHT22;9958;33.196;-97.114;2023-09-30T01:44:17;30.40;77.80
19622;DHT22;9958;33.196;-97.114;2023-09-30T01:46:45;30.40;77.80
19622;DHT22;9958;33.196;-97.114;2023-09-30T01:49:13;30.30;77.60
19622;DHT22;9958;33.196;-97.114;2023-09-30T01:51:41;30.30;77.90
19622;DHT22;9958;33.196;-97.114;2023-09-30T01:54:10;30.20;77.50
19622;DHT22;9958;33.196;-97.114;2023-09-30T01:56:40;30.10;77.40
19622;DHT22;9958;33.196;-97.114;2023-09-30T01:59:08;30.10;77.50
19622;DHT22;9958;33.196;-97.114;2023-09-30T02:01:37;30.10;77.60
19622;DHT22;9958;33.196;-97.114;2023-09-30T02:04:05;30.10;77.50
19622;DHT22;9958;33.196;-97.114;2023-09-30T02:06:34;30.00;77.70
19622;DHT22;9958;33.196;-97.114;2023-09-30T02:09:03;30.00;77.90
19622;DHT22;9958;33.196;-97.114;2023-09-30T02:11:34;30.00;77.90
19622;DHT22;9958;33.196;-97.114;2023-09-30T02:14:04;29.90;77.90
19622;DHT22;9958;33.196;-97.114;2023-09-30T02:16:34;29.90;78.20
19622;DHT22;9958;33.196;-97.114;2023-09-30T02:19:02;29.80;78.10
19622;DHT22;9958;33.196;-97.114;2023-09-30T02:21:30;29.80;78.60
19622;DHT22;9958;33.196;-97.114;2023-09-30T02:23:59;29.80;78.70
19622;DHT22;9958;33.196;-97.114;2023-09-30T02:26:27;29.80;79.00
19622;DHT22;9958;33.196;-97.114;2023-09-30T02:28:55;29.70;79.30
19622;DHT22;9958;33.196;-97.114;2023-09-30T02:31:25;29.60;79.70
19622;DHT22;9958;33.196;-97.114;2023-09-30T02:33:53;29.60;80.10
19622;DHT22;9958;33.196;-97.114;2023-09-30T02:36:22;29.60;80.20
19622;DHT22;9958;33.196;-97.114;2023-09-30T02:38:50;29.60;80.40
19622;DHT22;9958;33.196;-97.114;2023-09-30T02:41:18;29.50;80.70
19622;DHT22;9958;33.196;-97.114;2023-09-30T02:43:47;29.50;80.90
19622;DHT22;9958;33.196;-97.114;2023-09-30T02:46:16;29.40;81.30
19622;DHT22;9958;33.196;-97.114;2023-09-30T02:48:46;29.40;81.60
19622;DHT22;9958;33.196;-97.114;2023-09-30T02:51:13;29.40;81.80
19622;DHT22;9958;33.196;-97.114;2023-09-30T02:53:41;29.30;82.30
19622;DHT22;9958;33.196;-97.114;2023-09-30T02:56:09;29.30;82.30
19622;DHT22;9958;33.196;-97.114;2023-09-30T02:58:38;29.20;82.30
19622;DHT22;9958;33.196;-97.114;2023-09-30T03:01:06;29.20;82.80
19622;DHT22;9958;33.196;-97.114;2023-09-30T03:03:36;29.20;83.00
19622;DHT22;9958;33.196;-97.114;2023-09-30T03:06:07;29.20;83.30
19622;DHT22;9958;33.196;-97.114;2023-09-30T03:08:38;29.10;83.70
19622;DHT22;9958;33.196;-97.114;2023-09-30T03:11:07;29.10;83.90
19622;DHT22;9958;33.196;-97.114;2023-09-30T03:13:35;29.10;84.30
19622;DHT22;9958;33.196;-97.114;2023-09-30T03:16:04;29.00;84.40
19622;DHT22;9958;33.196;-97.114;2023-09-30T03:18:32;29.00;84.80
19622;DHT22;9958;33.196;-97.114;2023-09-30T03:21:01;29.00;84.90
19622;DHT22;9958;33.196;-97.114;2023-09-30T03:23:36;28.90;85.20
19622;DHT22;9958;33.196;-97.114;2023-09-30T03:26:05;28.90;85.50
19622;DHT22;9958;33.196;-97.114;2023-09-30T03:28:36;28.90;85.70
19622;DHT22;9958;33.196;-97.114;2023-09-30T03:31:05;28.80;85.90
19622;DHT22;9958;33.196;-97.114;2023-09-30T03:33:35;28.80;85.90
19622;DHT22;9958;33.196;-97.114;2023-09-30T03:36:03;28.70;86.30
19622;DHT22;9958;33.196;-97.114;2023-09-30T03:38:32;28.70;86.30
19622;DHT22;9958;33.196;-97.114;2023-09-30T03:41:04;28.70;86.60
19622;DHT22;9958;33.196;-97.114;2023-09-30T03:43:34;28.60;86.50
19622;DHT22;9958;33.196;-97.114;2023-09-30T03:46:07;28.60;86.80
19622;DHT22;9958;33.196;-97.114;2023-09-30T03:48:35;28.60;87.40
19622;DHT22;9958;33.196;-97.114;2023-09-30T03:51:09;28.50;87.50
19622;DHT22;9958;33.196;-97.114;2023-09-30T03:53:40;28.50;87.60
19622;DHT22;9958;33.196;-97.114;2023-09-30T03:56:10;28.50;87.60
19622;DHT22;9958;33.196;-97.114;2023-09-30T03:58:39;28.50;87.60
19622;DHT22;9958;33.196;-97.114;2023-09-30T04:01:08;28.50;88.00
19622;DHT22;9958;33.196;-97.114;2023-09-30T04:03:39;28.40;88.50
19622;DHT22;9958;33.196;-97.114;2023-09-30T04:06:09;28.40;88.40
19622;DHT22;9958;33.196;-97.114;2023-09-30T04:08:38;28.40;88.60
19622;DHT22;9958;33.196;-97.114;2023-09-30T04:11:07;28.40;88.70
19622;DHT22;9958;33.196;-97.114;2023-09-30T04:13:37;28.30;88.80
19622;DHT22;9958;33.196;-97.114;2023-09-30T04:16:06;28.30;88.90
19622;DHT22;9958;33.196;-97.114;2023-09-30T04:18:34;28.30;89.30
19622;DHT22;9958;33.196;-97.114;2023-09-30T04:21:03;28.30;89.40
19622;DHT22;9958;33.196;-97.114;2023-09-30T04:23:33;28.20;89.50
19622;DHT22;9958;33.196;-97.114;2023-09-30T04:26:02;28.20;89.80
19622;DHT22;9958;33.196;-97.114;2023-09-30T04:28:31;28.10;90.00
19622;DHT22;9958;33.196;-97.114;2023-09-30T04:31:02;28.10;90.20
19622;DHT22;9958;33.196;-97.114;2023-09-30T04:33:31;28.00;90.20
19622;DHT22;9958;33.196;-97.114;2023-09-30T04:36:02;28.00;90.20
19622;DHT22;9958;33.196;-97.114;2023-09-30T04:38:31;28.00;90.40
19622;DHT22;9958;33.196;-97.114;2023-09-30T04:41:00;27.90;90.40
19622;DHT22;9958;33.196;-97.114;2023-09-30T04:43:28;27.90;90.60
19622;DHT22;9958;33.196;-97.114;2023-09-30T04:45:59;27.90;90.60
19622;DHT22;9958;33.196;-97.114;2023-09-30T04:48:29;27.90;90.70
19622;DHT22;9958;33.196;-97.114;2023-09-30T04:50:58;27.90;90.90
19622;DHT22;9958;33.196;-97.114;2023-09-30T04:53:26;27.80;90.80
19622;DHT22;9958;33.196;-97.114;2023-09-30T04:55:55;27.80;90.90
19622;DHT22;9958;33.196;-97.114;2023-09-30T04:58:23;27.80;91.20
19622;DHT22;9958;33.196;-97.114;2023-09-30T05:00:52;27.80;91.30
19622;DHT22;9958;33.196;-97.114;2023-09-30T05:03:20;27.70;91.30
19622;DHT22;9958;33.196;-97.114;2023-09-30T05:05:52;27.70;91.30
19622;DHT22;9958;33.196;-97.114;2023-09-30T05:08:22;27.70;91.40
19622;DHT22;9958;33.196;-97.114;2023-09-30T05:10:51;27.70;91.50
19622;DHT22;9958;33.196;-97.114;2023-09-30T05:13:21;27.70;91.70
19622;DHT22;9958;33.196;-97.114;2023-09-30T05:15:51;27.60;91.60
19622;DHT22;9958;33.196;-97.114;2023-09-30T05:18:19;27.60;91.70
19622;DHT22;9958;33.196;-97.114;2023-09-30T05:20:48;27.60;91.80
19622;DHT22;9958;33.196;-97.114;2023-09-30T05:23:18;27.60;91.80
19622;DHT22;9958;33.196;-97.114;2023-09-30T05:25:46;27.60;91.90
19622;DHT22;9958;33.196;-97.114;2023-09-30T05:28:14;27.60;92.10
19622;DHT22;9958;33.196;-97.114;2023-09-30T05:30:43;27.50;92.10
19622;DHT22;9958;33.196;-97.114;2023-09-30T05:33:12;27.50;92.20
19622;DHT22;9958;33.196;-97.114;2023-09-30T05:35:41;27.50;92.20
19622;DHT22;9958;33.196;-97.114;2023-09-30T05:38:09;27.50;92.20
19622;DHT22;9958;33.196;-97.114;2023-09-30T05:40:40;27.50;92.20
19622;DHT22;9958;33.196;-97.114;2023-09-30T05:43:09;27.50;92.30
19622;DHT22;9958;33.196;-97.114;2023-09-30T05:45:40;27.50;92.40
19622;DHT22;9958;33.196;-97.114;2023-09-30T05:48:15;27.40;92.30
19622;DHT22;9958;33.196;-97.114;2023-09-30T05:50:43;27.40;92.70
19622;DHT22;9958;33.196;-97.114;2023-09-30T05:53:12;27.40;92.40
19622;DHT22;9958;33.196;-97.114;2023-09-30T05:55:42;27.50;92.40
19622;DHT22;9958;33.196;-97.114;2023-09-30T05:58:13;27.40;92.40
19622;DHT22;9958;33.196;-97.114;2023-09-30T06:00:42;27.40;92.40
19622;DHT22;9958;33.196;-97.114;2023-09-30T06:03:10;27.40;92.50
19622;DHT22;9958;33.196;-97.114;2023-09-30T06:05:40;27.40;92.50
19622;DHT22;9958;33.196;-97.114;2023-09-30T06:08:09;27.40;92.70
19622;DHT22;9958;33.196;-97.114;2023-09-30T06:10:42;27.40;92.60
19622;DHT22;9958;33.196;-97.114;2023-09-30T06:13:11;27.40;92.70
19622;DHT22;9958;33.196;-97.114;2023-09-30T06:15:40;27.30;92.70
19622;DHT22;9958;33.196;-97.114;2023-09-30T06:18:09;27.30;93.10
19622;DHT22;9958;33.196;-97.114;2023-09-30T06:20:39;27.30;92.90
19622;DHT22;9958;33.196;-97.114;2023-09-30T06:23:08;27.30;92.90
19622;DHT22;9958;33.196;-97.114;2023-09-30T06:25:36;27.30;93.00
19622;DHT22;9958;33.196;-97.114;2023-09-30T06:28:07;27.30;93.10
19622;DHT22;9958;33.196;-97.114;2023-09-30T06:30:36;27.30;93.10
19622;DHT22;9958;33.196;-97.114;2023-09-30T06:33:04;27.20;93.40
19622;DHT22;9958;33.196;-97.114;2023-09-30T06:35:33;27.20;93.40
19622;DHT22;9958;33.196;-97.114;2023-09-30T06:38:05;27.20;93.40
19622;DHT22;9958;33.196;-97.114;2023-09-30T06:40:34;27.10;93.50
19622;DHT22;9958;33.196;-97.114;2023-09-30T06:43:06;27.10;93.60
19622;DHT22;9958;33.196;-97.114;2023-09-30T06:45:34;27.10;93.60
19622;DHT22;9958;33.196;-97.114;2023-09-30T06:48:07;27.10;93.80
19622;DHT22;9958;33.196;-97.114;2023-09-30T06:50:40;27.00;93.90
19622;DHT22;9958;33.196;-97.114;2023-09-30T06:53:08;26.90;94.00
19622;DHT22;9958;33.196;-97.114;2023-09-30T06:55:38;26.90;94.10
19622;DHT22;9958;33.196;-97.114;2023-09-30T06:58:08;26.80;94.40
19622;DHT22;9958;33.196;-97.114;2023-09-30T07:00:37;26.80;94.40
19622;DHT22;9958;33.196;-97.114;2023-09-30T07:03:05;26.80;94.80
19622;DHT22;9958;33.196;-97.114;2023-09-30T07:05:36;26.70;94.90
19622;DHT22;9958;33.196;-97.114;2023-09-30T07:08:05;26.70;95.10
19622;DHT22;9958;33.196;-97.114;2023-09-30T07:10:34;26.60;95.20
19622;DHT22;9958;33.196;-97.114;2023-09-30T07:13:03;26.50;95.40
19622;DHT22;9958;33.196;-97.114;2023-09-30T07:15:34;26.50;95.70
19622;DHT22;9958;33.196;-97.114;2023-09-30T07:18:03;26.40;95.80
19622;DHT22;9958;33.196;-97.114;2023-09-30T07:20:32;26.30;96.00
19622;DHT22;9958;33.196;-97.114;2023-09-30T07:23:00;26.30;96.30
19622;DHT22;9958;33.196;-97.114;2023-09-30T07:25:29;26.20;96.40
19622;DHT22;9958;33.196;-97.114;2023-09-30T07:27:59;26.20;96.60
19622;DHT22;9958;33.196;-97.114;2023-09-30T07:30:28;26.10;96.80
19622;DHT22;9958;33.196;-97.114;2023-09-30T07:32:57;26.00;97.00
19622;DHT22;9958;33.196;-97.114;2023-09-30T07:35:26;25.90;97.10
19622;DHT22;9958;33.196;-97.114;2023-09-30T07:37:54;25.90;97.40
19622;DHT22;9958;33.196;-97.114;2023-09-30T07:40:23;25.80;97.80
19622;DHT22;9958;33.196;-97.114;2023-09-30T07:42:51;25.80;98.10
19622;DHT22;9958;33.196;-97.114;2023-09-30T07:45:20;25.70;98.20
19622;DHT22;9958;33.196;-97.114;2023-09-30T07:47:48;25.70;98.40
19622;DHT22;9958;33.196;-97.114;2023-09-30T07:50:19;25.60;98.70
19622;DHT22;9958;33.196;-97.114;2023-09-30T07:52:47;25.60;98.80
19622;DHT22;9958;33.196;-97.114;2023-09-30T07:55:15;25.60;99.00
19622;DHT22;9958;33.196;-97.114;2023-09-30T07:57:44;25.50;99.30
19622;DHT22;9958;33.196;-97.114;2023-09-30T08:00:13;25.50;99.50
19622;DHT22;9958;33.196;-97.114;2023-09-30T08:02:43;25.40;99.90
19622;DHT22;9958;33.196;-97.114;2023-09-30T08:05:12;25.40;99.90
19622;DHT22;9958;33.196;-97.114;2023-09-30T08:07:42;25.40;99.90
19622;DHT22;9958;33.196;-97.114;2023-09-30T08:10:12;25.40;99.90
19622;DHT22;9958;33.196;-97.114;2023-09-30T08:12:43;25.30;99.90
19622;DHT22;9958;33.196;-97.114;2023-09-30T08:15:14;25.40;99.90
19622;DHT22;9958;33.196;-97.114;2023-09-30T08:17:43;25.30;99.90
19622;DHT22;9958;33.196;-97.114;2023-09-30T08:20:11;25.40;99.90
19622;DHT22;9958;33.196;-97.114;2023-09-30T08:22:41;25.40;99.90
19622;DHT22;9958;33.196;-97.114;2023-09-30T08:25:10;25.30;99.90
19622;DHT22;9958;33.196;-97.114;2023-09-30T08:27:39;25.30;99.90
19622;DHT22;9958;33.196;-97.114;2023-09-30T08:30:08;25.30;99.90
19622;DHT22;9958;33.196;-97.114;2023-09-30T08:32:37;25.30;99.90
19622;DHT22;9958;33.196;-97.114;2023-09-30T08:35:06;25.30;99.90
19622;DHT22;9958;33.196;-97.114;2023-09-30T08:37:36;25.20;99.90
19622;DHT22;9958;33.196;-97.114;2023-09-30T08:40:07;25.20;99.90
19622;DHT22;9958;33.196;-97.114;2023-09-30T08:42:39;25.20;99.90
19622;DHT22;9958;33.196;-97.114;2023-09-30T08:45:11;25.10;99.90
19622;DHT22;9958;33.196;-97.114;2023-09-30T08:47:41;25.10;99.90
19622;DHT22;9958;33.196;-97.114;2023-09-30T08:50:10;25.10;99.90
19622;DHT22;9958;33.196;-97.114;2023-09-30T08:52:38;25.10;99.90
19622;DHT22;9958;33.196;-97.114;2023-09-30T08:55:10;25.00;99.90
19622;DHT22;9958;33.196;-97.114;2023-09-30T08:57:40;25.00;99.90
19622;DHT22;9958;33.196;-97.114;2023-09-30T09:00:10;25.00;99.90
19622;DHT22;9958;33.196;-97.114;2023-09-30T09:02:39;24.90;99.90
19622;DHT22;9958;33.196;-97.114;2023-09-30T09:05:08;24.90;99.90
19622;DHT22;9958;33.196;-97.114;2023-09-30T09:07:37;24.80;99.90
19622;DHT22;9958;33.196;-97.114;2023-09-30T09:10:10;24.80;99.90
19622;DHT22;9958;33.196;-97.114;2023-09-30T09:12:40;24.80;99.90
19622;DHT22;9958;33.196;-97.114;2023-09-30T09:15:20;24.80;99.90
19622;DHT22;9958;33.196;-97.114;2023-09-30T09:17:49;24.80;99.90
19622;DHT22;9958;33.196;-97.114;2023-09-30T09:20:19;24.80;99.90
19622;DHT22;9958;33.196;-97.114;2023-09-30T09:22:48;24.80;99.90
19622;DHT22;9958;33.196;-97.114;2023-09-30T09:25:21;24.70;99.90
19622;DHT22;9958;33.196;-97.114;2023-09-30T09:27:51;24.70;99.90
19622;DHT22;9958;33.196;-97.114;2023-09-30T09:30:21;24.70;99.90
19622;DHT22;9958;33.196;-97.114;2023-09-30T09:33:00;24.70;99.90
19622;DHT22;9958;33.196;-97.114;2023-09-30T09:35:29;24.60;99.90
19622;DHT22;9958;33.196;-97.114;2023-09-30T09:38:00;24.60;99.90
19622;DHT22;9958;33.196;-97.114;2023-09-30T09:40:32;24.60;99.90
19622;DHT22;9958;33.196;-97.114;2023-09-30T09:43:01;24.60;99.90
19622;DHT22;9958;33.196;-97.114;2023-09-30T09:45:33;24.60;99.90
19622;DHT22;9958;33.196;-97.114;2023-09-30T09:48:02;24.60;99.90
19622;DHT22;9958;33.196;-97.114;2023-09-30T09:50:31;24.60;99.90
19622;DHT22;9958;33.196;-97.114;2023-09-30T09:53:00;24.60;99.90
19622;DHT22;9958;33.196;-97.114;2023-09-30T09:55:30;24.60;99.90
19622;DHT22;9958;33.196;-97.114;2023-09-30T09:58:02;24.60;99.90
19622;DHT22;9958;33.196;-97.114;2023-09-30T10:00:31;24.60;99.90
19622;DHT22;9958;33.196;-97.114;2023-09-30T10:03:00;24.60;99.90
19622;DHT22;9958;33.196;-97.114;2023-09-30T10:05:29;24.60;99.90
19622;DHT22;9958;33.196;-97.114;2023-09-30T10:08:02;24.50;99.90
19622;DHT22;9958;33.196;-97.114;2023-09-30T10:10:36;24.50;99.90
19622;DHT22;9958;33.196;-97.114;2023-09-30T10:13:05;24.50;99.90
19622;DHT22;9958;33.196;-97.114;2023-09-30T10:15:39;24.50;99.90
19622;DHT22;9958;33.196;-97.114;2023-09-30T10:18:08;24.40;99.90
19622;DHT22;9958;33.196;-97.114;2023-09-30T10:20:38;24.40;99.90
19622;DHT22;9958;33.196;-97.114;2023-09-30T10:23:26;24.40;99.90
19622;DHT22;9958;33.196;-97.114;2023-09-30T10:28:53;24.30;99.90
19622;DHT22;9958;33.196;-97.114;2023-09-30T10:31:22;24.20;99.90
19622;DHT22;9958;33.196;-97.114;2023-09-30T10:34:20;24.20;99.90
19622;DHT22;9958;33.196;-97.114;2023-09-30T10:36:49;24.10;99.90
19622;DHT22;9958;33.196;-97.114;2023-09-30T10:39:54;24.10;99.90
19622;DHT22;9958;33.196;-97.114;2023-09-30T10:42:47;24.10;99.90
19622;DHT22;9958;33.196;-97.114;2023-09-30T10:45:46;24.00;99.90
19622;DHT22;9958;33.196;-97.114;2023-09-30T10:48:36;24.00;99.90
19622;DHT22;9958;33.196;-97.114;2023-09-30T10:51:14;24.00;99.90
19622;DHT22;9958;33.196;-97.114;2023-09-30T10:53:48;24.00;99.90
19622;DHT22;9958;33.196;-97.114;2023-09-30T10:56:19;23.90;99.90
19622;DHT22;9958;33.196;-97.114;2023-09-30T10:58:49;23.90;99.90
19622;DHT22;9958;33.196;-97.114;2023-09-30T11:01:21;23.90;99.90
19622;DHT22;9958;33.196;-97.114;2023-09-30T11:03:57;23.90;99.90
19622;DHT22;9958;33.196;-97.114;2023-09-30T11:06:29;23.80;99.90
19622;DHT22;9958;33.196;-97.114;2023-09-30T11:08:59;23.80;99.90
19622;DHT22;9958;33.196;-97.114;2023-09-30T11:11:36;23.80;99.90
19622;DHT22;9958;33.196;-97.114;2023-09-30T11:14:16;23.80;99.90
19622;DHT22;9958;33.196;-97.114;2023-09-30T11:16:46;23.80;99.90
19622;DHT22;9958;33.196;-97.114;2023-09-30T11:19:15;23.80;99.90
19622;DHT22;9958;33.196;-97.114;2023-09-30T11:21:43;23.70;99.90
19622;DHT22;9958;33.196;-97.114;2023-09-30T11:24:11;23.70;99.90
19622;DHT22;9958;33.196;-97.114;2023-09-30T11:26:40;23.70;99.90
19622;DHT22;9958;33.196;-97.114;2023-09-30T11:29:10;23.70;99.90
19622;DHT22;9958;33.196;-97.114;2023-09-30T11:31:40;23.70;99.90
19622;DHT22;9958;33.196;-97.114;2023-09-30T11:34:11;23.70;99.90
19622;DHT22;9958;33.196;-97.114;2023-09-30T11:36:50;23.60;99.90
19622;DHT22;9958;33.196;-97.114;2023-09-30T11:39:24;23.60;99.90
19622;DHT22;9958;33.196;-97.114;2023-09-30T11:41:53;23.60;99.90
19622;DHT22;9958;33.196;-97.114;2023-09-30T11:44:23;23.60;99.90
19622;DHT22;9958;33.196;-97.114;2023-09-30T11:46:53;23.60;99.90
19622;DHT22;9958;33.196;-97.114;2023-09-30T11:49:28;23.50;99.90
19622;DHT22;9958;33.196;-97.114;2023-09-30T11:51:58;23.50;99.90
19622;DHT22;9958;33.196;-97.114;2023-09-30T11:54:30;23.50;99.90
19622;DHT22;9958;33.196;-97.114;2023-09-30T11:57:00;23.50;99.90
19622;DHT22;9958;33.196;-97.114;2023-09-30T11:59:29;23.50;99.90
19622;DHT22;9958;33.196;-97.114;2023-09-30T12:01:58;23.50;99.90
19622;DHT22;9958;33.196;-97.114;2023-09-30T12:04:28;23.40;99.90
19622;DHT22;9958;33.196;-97.114;2023-09-30T12:06:56;23.40;99.90
19622;DHT22;9958;33.196;-97.114;2023-09-30T12:09:24;23.40;99.90
19622;DHT22;9958;33.196;-97.114;2023-09-30T12:11:53;23.40;99.90
19622;DHT22;9958;33.196;-97.114;2023-09-30T12:14:24;23.30;99.90
19622;DHT22;9958;33.196;-97.114;2023-09-30T12:16:52;23.30;99.90
19622;DHT22;9958;33.196;-97.114;2023-09-30T12:19:21;23.30;99.90
19622;DHT22;9958;33.196;-97.114;2023-09-30T12:21:51;23.30;99.90
19622;DHT22;9958;33.196;-97.114;2023-09-30T12:24:19;23.30;99.90
19622;DHT22;9958;33.196;-97.114;2023-09-30T12:26:49;23.30;99.90
19622;DHT22;9958;33.196;-97.114;2023-09-30T12:29:19;23.30;99.90
19622;DHT22;9958;33.196;-97.114;2023-09-30T12:31:50;23.30;99.90
19622;DHT22;9958;33.196;-97.114;2023-09-30T12:34:18;23.20;99.90
19622;DHT22;9958;33.196;-97.114;2023-09-30T12:36:46;23.20;99.90
19622;DHT22;9958;33.196;-97.114;2023-09-30T12:39:17;23.20;99.90
19622;DHT22;9958;33.196;-97.114;2023-09-30T12:41:50;23.30;99.90
19622;DHT22;9958;33.196;-97.114;2023-09-30T12:44:18;23.30;99.90
19622;DHT22;9958;33.196;-97.114;2023-09-30T12:46:46;23.30;99.90
19622;DHT22;9958;33.196;-97.114;2023-09-30T12:49:15;23.30;99.90
19622;DHT22;9958;33.196;-97.114;2023-09-30T12:51:44;23.30;99.90
19622;DHT22;9958;33.196;-97.114;2023-09-30T12:54:13;23.30;99.90
19622;DHT22;9958;33.196;-97.114;2023-09-30T12:56:46;23.40;99.90
19622;DHT22;9958;33.196;-97.114;2023-09-30T12:59:14;23.40;99.90
19622;DHT22;9958;33.196;-97.114;2023-09-30T13:01:44;23.40;99.90
19622;DHT22;9958;33.196;-97.114;2023-09-30T13:04:14;23.50;99.90
19622;DHT22;9958;33.196;-97.114;2023-09-30T13:06:42;23.50;99.90
19622;DHT22;9958;33.196;-97.114;2023-09-30T13:09:11;23.60;99.90
19622;DHT22;9958;33.196;-97.114;2023-09-30T13:11:39;23.60;99.90
19622;DHT22;9958;33.196;-97.114;2023-09-30T13:14:09;23.70;99.90
19622;DHT22;9958;33.196;-97.114;2023-09-30T13:16:38;23.80;99.90
19622;DHT22;9958;33.196;-97.114;2023-09-30T13:19:06;23.90;99.90
19622;DHT22;9958;33.196;-97.114;2023-09-30T13:21:35;24.00;99.90
19622;DHT22;9958;33.196;-97.114;2023-09-30T13:24:03;24.10;99.90
19622;DHT22;9958;33.196;-97.114;2023-09-30T13:26:33;24.20;99.90
19622;DHT22;9958;33.196;-97.114;2023-09-30T13:29:01;24.30;99.90
19622;DHT22;9958;33.196;-97.114;2023-09-30T13:31:33;24.50;99.90
19622;DHT22;9958;33.196;-97.114;2023-09-30T13:34:03;24.60;99.90
19622;DHT22;9958;33.196;-97.114;2023-09-30T13:36:31;24.80;99.90
19622;DHT22;9958;33.196;-97.114;2023-09-30T13:39:00;24.90;99.90
19622;DHT22;9958;33.196;-97.114;2023-09-30T13:41:34;25.00;99.90
19622;DHT22;9958;33.196;-97.114;2023-09-30T13:44:03;25.20;99.90
19622;DHT22;9958;33.196;-97.114;2023-09-30T13:46:33;25.40;99.90
19622;DHT22;9958;33.196;-97.114;2023-09-30T13:49:02;25.60;99.90
19622;DHT22;9958;33.196;-97.114;2023-09-30T13:51:30;25.70;99.90
19622;DHT22;9958;33.196;-97.114;2023-09-30T13:53:58;25.90;99.90
19622;DHT22;9958;33.196;-97.114;2023-09-30T13:56:27;26.10;99.90
19622;DHT22;9958;33.196;-97.114;2023-09-30T13:58:56;26.20;99.90
19622;DHT22;9958;33.196;-97.114;2023-09-30T14:01:26;26.40;99.90
19622;DHT22;9958;33.196;-97.114;2023-09-30T14:03:56;26.50;99.90
19622;DHT22;9958;33.196;-97.114;2023-09-30T14:06:24;26.60;99.90
19622;DHT22;9958;33.196;-97.114;2023-09-30T14:08:53;26.80;99.90
19622;DHT22;9958;33.196;-97.114;2023-09-30T14:11:21;26.90;99.90
19622;DHT22;9958;33.196;-97.114;2023-09-30T14:13:50;27.00;99.90
19622;DHT22;9958;33.196;-97.114;2023-09-30T14:16:18;27.20;99.90
19622;DHT22;9958;33.196;-97.114;2023-09-30T14:18:47;27.30;99.90
19622;DHT22;9958;33.196;-97.114;2023-09-30T14:21:17;27.40;99.90
19622;DHT22;9958;33.196;-97.114;2023-09-30T14:23:46;27.60;99.90
19622;DHT22;9958;33.196;-97.114;2023-09-30T14:26:14;27.70;99.90
19622;DHT22;9958;33.196;-97.114;2023-09-30T14:28:42;27.90;99.90
19622;DHT22;9958;33.196;-97.114;2023-09-30T14:31:11;28.00;99.90
19622;DHT22;9958;33.196;-97.114;2023-09-30T14:33:40;28.10;99.90
19622;DHT22;9958;33.196;-97.114;2023-09-30T14:36:09;28.20;99.90
19622;DHT22;9958;33.196;-97.114;2023-09-30T14:38:39;28.40;99.90
19622;DHT22;9958;33.196;-97.114;2023-09-30T14:41:07;28.50;99.90
19622;DHT22;9958;33.196;-97.114;2023-09-30T14:43:36;28.60;99.90
19622;DHT22;9958;33.196;-97.114;2023-09-30T14:46:05;28.70;99.90
19622;DHT22;9958;33.196;-97.114;2023-09-30T14:48:34;28.80;99.90
19622;DHT22;9958;33.196;-97.114;2023-09-30T14:51:03;29.00;99.90
19622;DHT22;9958;33.196;-97.114;2023-09-30T14:53:32;29.00;99.90
19622;DHT22;9958;33.196;-97.114;2023-09-30T14:56:02;29.10;99.90
19622;DHT22;9958;33.196;-97.114;2023-09-30T14:58:32;29.30;99.90
19622;DHT22;9958;33.196;-97.114;2023-09-30T15:01:00;29.40;99.90
19622;DHT22;9958;33.196;-97.114;2023-09-30T15:03:28;29.50;99.90
19622;DHT22;9958;33.196;-97.114;2023-09-30T15:06:00;29.60;99.90
19622;DHT22;9958;33.196;-97.114;2023-09-30T15:08:29;29.70;99.90
19622;DHT22;9958;33.196;-97.114;2023-09-30T15:10:58;29.80;99.90
19622;DHT22;9958;33.196;-97.114;2023-09-30T15:13:28;29.90;99.90
19622;DHT22;9958;33.196;-97.114;2023-09-30T15:15:57;30.00;99.90
19622;DHT22;9958;33.196;-97.114;2023-09-30T15:18:25;30.10;99.90
19622;DHT22;9958;33.196;-97.114;2023-09-30T15:20:53;30.20;99.90
19622;DHT22;9958;33.196;-97.114;2023-09-30T15:23:21;30.30;99.90
19622;DHT22;9958;33.196;-97.114;2023-09-30T15:25:50;30.40;99.90
19622;DHT22;9958;33.196;-97.114;2023-09-30T15:28:18;30.50;99.90
19622;DHT22;9958;33.196;-97.114;2023-09-30T15:30:51;30.60;99.90
19622;DHT22;9958;33.196;-97.114;2023-09-30T15:33:19;30.70;99.90
19622;DHT22;9958;33.196;-97.114;2023-09-30T15:35:47;30.70;99.90